North Dighton, Massachusetts
Current Conditions -  °F | °C
As of 9:52 AM on Thursday 30 Oct 2014 (Local Time) from KTAN Reporting Station
Clear Clear  
Wind Chill: 11°   Ceiling: Unl
Heat Index: 11°   Visibility: 10mi
Dew Point:   Wind: 5mph
Humidity: 69%   Direction: NA
Pressure: 29.94"   Gusts: NA
Location:  41.86°N, 71.12°W
Report Text: KTAN 301352Z AUTO VRB04KT 10SM CLR 11/06 A2994 RMK AO2 SLP140 T01110056
Loading
Personal Weather Stations






























Interactive Weather Map
Tropical Storm Tracking
New forecast layout! Learn more

10-Day Weather Forecast

Advertisements
Track Severe Weather on mobile